Meteo Giornale » Osservazioni meteo Italia » Pescara

ore: 15:50 - Osservazioni Meteo Pescara
Lat. 42° 26' N Lon. 14° 12' E Alt. 10 metri s.l.m.

sereno Europe/Rome

26 °C

Sereno

Temp. 24 Ore

13 °C

26 °C

Est/Nord-Est

14.8 Km/h

Dew point 9 °C

Umidità 34 %

Visibilità  10 Km

Il sole sorge alle ore 05:28

Il sole tramonta alle ore 20:32

Data e Ora Cielo e Fenomeni T °C DP °C Um. % Pres. hPa Vis. km Vento km/h
Oggi h: 15:50 sereno Sereno 26 9 34 1021 10 E/NE 14.8
Oggi h: 14:50 sereno Sereno 26 12 41 1021 10 NE 14.8
Oggi h: 13:50 sereno Sereno 25 13 47 1021 10 N/NE 13
Oggi h: 12:50 sereno Sereno 25 13 47 1022 10 N/NE 14.8
Oggi h: 11:50 sereno Sereno 25 12 44 1022 10 NE 16.7
Oggi h: 10:50 sereno Sereno 25 11 41 1021 10 N/NE 13
Oggi h: 09:50 sereno Sereno 24 12 47 1021 10 N 3.7
Oggi h: 08:50 sereno Sereno 21 12 56 1021 10 SO 9.3
Oggi h: 07:50 sereno Sereno 17 11 67 1021 10 SO 9.3
Oggi h: 06:50 sereno Sereno 15 11 76 1021 10 O/SO 9.3
Oggi h: 05:50 sereno Sereno 13 10 81 1021 10 O/SO 7.4
Oggi h: 04:50 sereno Sereno 13 10 81 1021 10 SO 9.3
Oggi h: 03:50 sereno Sereno 13 10 81 1021 10 SO 7.4
Oggi h: 02:50 sereno Sereno 15 10 72 1021 10 O/SO 9.3
Oggi h: 01:50 sereno Sereno 15 11 76 1021 10 O/SO 11.1
Oggi h: 00:50 sereno Sereno 16 11 72 1021 10 O/SO 11.1
Ieri h: 23:50 sereno Sereno 16 12 77 1021 10 O/SO 11.1
Ieri h: 22:50 sereno Sereno 18 12 67 1021 10 O/SO 9.3
Ieri h: 21:50 sereno Sereno 20 11 56 1020 10 N 5.5
Ieri h: 20:50 sereno Sereno 21 11 52 1019 10 N 5.5
Ieri h: 19:50 sereno Sereno 23 11 46 1019 10 N 11.1
Ieri h: 18:50 sereno Sereno 24 11 43 1019 10 N 14.8
Ieri h: 17:50 sereno Sereno 24 11 43 1019 10 N 16.7
Ieri h: 16:50 sereno Sereno 24 12 47 1019 10 N 18.5